createdAt,value
2018-01-15T00:01:58.286Z,16.85
2018-01-15T00:04:25.058Z,18.17
2018-01-15T00:06:51.903Z,18.67
2018-01-15T00:09:18.727Z,18.67
2018-01-15T00:11:45.513Z,17.02
2018-01-15T00:14:12.306Z,16.95
2018-01-15T00:16:39.143Z,18.15
2018-01-15T00:19:05.981Z,23.00
2018-01-15T00:21:32.808Z,17.80
2018-01-15T00:23:59.633Z,17.83
2018-01-15T00:26:26.445Z,16.95
2018-01-15T00:28:54.097Z,18.20
2018-01-15T00:31:20.922Z,15.23
2018-01-15T00:33:47.759Z,20.83
2018-01-15T00:36:14.614Z,22.05
2018-01-15T00:38:41.492Z,17.95
2018-01-15T00:41:08.340Z,20.55
2018-01-15T00:43:35.172Z,16.45
2018-01-15T00:46:02.018Z,19.10
2018-01-15T00:48:28.900Z,18.15
2018-01-15T00:50:55.704Z,17.02
2018-01-15T00:53:22.526Z,20.77
2018-01-15T00:55:50.072Z,18.60
2018-01-15T00:58:16.916Z,20.30
2018-01-15T01:00:43.864Z,16.98
2018-01-15T01:03:10.730Z,19.52
2018-01-15T01:05:37.602Z,18.35
2018-01-15T01:08:04.436Z,19.02
2018-01-15T01:10:31.288Z,18.70
2018-01-15T01:12:58.156Z,18.70
2018-01-15T01:15:25.067Z,20.33
2018-01-15T01:17:51.934Z,18.90
2018-01-15T01:20:18.804Z,18.50
2018-01-15T01:22:45.659Z,17.45
2018-01-15T01:25:12.437Z,18.95
2018-01-15T01:27:39.231Z,17.25
2018-01-15T01:30:06.056Z,16.65
2018-01-15T01:32:32.835Z,18.50
2018-01-15T01:35:00.381Z,18.90
2018-01-15T01:37:27.150Z,21.45
2018-01-15T01:39:53.988Z,19.25
2018-01-15T01:42:20.815Z,20.05
2018-01-15T01:44:47.582Z,20.75
2018-01-15T01:47:14.385Z,21.83
2018-01-15T01:49:41.193Z,18.27
2018-01-15T01:52:07.937Z,19.92
2018-01-15T01:54:34.778Z,19.12
2018-01-15T01:57:01.613Z,19.62
2018-01-15T01:59:28.486Z,20.98
2018-01-15T02:01:55.304Z,20.80
2018-01-15T02:04:22.135Z,21.52
2018-01-15T02:06:49.759Z,20.33
2018-01-15T02:09:16.597Z,17.37
2018-01-15T02:11:43.467Z,21.15
2018-01-15T02:14:10.345Z,17.00
2018-01-15T02:16:37.131Z,19.25
2018-01-15T02:19:04.003Z,17.80
2018-01-15T02:21:30.940Z,21.52
2018-01-15T02:23:58.805Z,21.83
2018-01-15T02:26:25.657Z,19.73
2018-01-15T02:28:52.553Z,21.17
2018-01-15T02:31:19.460Z,18.00
2018-01-15T02:33:46.339Z,18.75
2018-01-15T02:36:13.214Z,19.70
2018-01-15T02:38:40.124Z,19.98
2018-01-15T02:41:07.035Z,24.00
2018-01-15T02:43:33.919Z,18.95
2018-01-15T02:46:00.822Z,18.35
2018-01-15T02:48:28.421Z,22.77
2018-01-15T02:50:55.310Z,19.33
2018-01-15T02:53:22.239Z,21.37
2018-01-15T02:55:49.127Z,20.50
2018-01-15T02:58:16.006Z,20.62
2018-01-15T03:00:42.980Z,22.65
2018-01-15T03:03:09.940Z,21.48
2018-01-15T03:05:36.927Z,19.75
2018-01-15T03:08:03.818Z,20.58
2018-01-15T03:10:30.663Z,21.20
2018-01-15T03:12:58.243Z,20.33
2018-01-15T03:15:25.787Z,19.92
2018-01-15T03:20:52.978Z,19.73
2018-01-15T03:23:19.747Z,22.15
2018-01-15T03:25:46.578Z,18.85
2018-01-15T03:28:13.361Z,21.20
2018-01-15T03:30:40.155Z,21.42
2018-01-15T03:33:07.671Z,23.02
2018-01-15T03:35:34.454Z,20.58
2018-01-15T03:38:01.265Z,24.70
2018-01-15T03:40:29.952Z,19.60
2018-01-15T03:42:56.718Z,18.98
2018-01-15T03:45:23.491Z,22.67
2018-01-15T03:47:50.278Z,20.85
2018-01-15T03:50:17.069Z,21.90
2018-01-15T03:52:43.832Z,19.37
2018-01-15T03:55:10.665Z,22.55
2018-01-15T03:57:37.465Z,21.58
2018-01-15T04:00:05.501Z,19.85
2018-01-15T04:02:32.315Z,18.80
2018-01-15T04:04:59.883Z,17.80
2018-01-15T04:07:26.667Z,23.02
2018-01-15T04:09:53.452Z,22.95
2018-01-15T04:12:20.273Z,21.12
2018-01-15T04:14:47.825Z,23.27
2018-01-15T04:17:14.628Z,20.48
2018-01-15T04:19:41.382Z,22.40
2018-01-15T04:22:08.203Z,19.73
2018-01-15T04:24:35.063Z,21.55
2018-01-15T04:27:01.883Z,20.73
2018-01-15T04:29:28.708Z,22.50
2018-01-15T04:31:56.272Z,21.77
2018-01-15T04:34:23.151Z,21.50
2018-01-15T04:36:51.061Z,21.77
2018-01-15T04:39:17.901Z,24.52
2018-01-15T04:44:45.499Z,22.75
2018-01-15T04:47:13.772Z,20.05
2018-01-15T04:49:40.554Z,21.40
2018-01-15T04:52:08.056Z,22.58
2018-01-15T04:54:34.831Z,20.08
2018-01-15T04:57:01.631Z,21.50
2018-01-15T04:59:28.428Z,16.95
2018-01-15T05:01:55.203Z,23.40
2018-01-15T05:04:22.064Z,16.95
2018-01-15T05:06:48.917Z,21.85
2018-01-15T05:09:15.702Z,20.80
2018-01-15T05:11:42.503Z,20.33
2018-01-15T05:14:10.025Z,22.25
2018-01-15T05:16:36.850Z,21.67
2018-01-15T05:19:03.725Z,19.87
2018-01-15T05:21:30.542Z,21.58
2018-01-15T05:23:57.408Z,21.02
2018-01-15T05:26:24.220Z,21.08
2018-01-15T05:28:51.024Z,19.58
2018-01-15T05:31:19.271Z,21.20
2018-01-15T05:33:47.132Z,22.35
2018-01-15T05:36:14.807Z,20.20
2018-01-15T05:38:41.774Z,21.23
2018-01-15T05:41:08.664Z,23.08
2018-01-15T05:43:35.420Z,21.73
2018-01-15T05:46:03.010Z,23.00
2018-01-15T05:48:29.830Z,19.80
2018-01-15T05:50:57.397Z,24.27
2018-01-15T05:53:25.330Z,19.33
2018-01-15T05:55:52.170Z,21.27
2018-01-15T05:58:19.005Z,22.25
2018-01-15T06:00:46.581Z,20.95
2018-01-15T06:03:15.925Z,20.92
2018-01-15T06:05:42.730Z,21.83
2018-01-15T06:08:09.549Z,19.37
2018-01-15T06:10:36.423Z,20.75
2018-01-15T06:13:03.267Z,22.77
2018-01-15T06:15:30.147Z,25.20
2018-01-15T06:17:56.950Z,23.65
2018-01-15T06:20:23.765Z,26.80
2018-01-15T06:22:50.613Z,21.65
2018-01-15T06:25:17.427Z,21.35
2018-01-15T06:27:44.301Z,23.33
2018-01-15T06:30:11.890Z,19.23
2018-01-15T06:32:39.544Z,21.95
2018-01-15T06:35:06.439Z,21.75
2018-01-15T06:37:34.127Z,20.65
2018-01-15T06:40:01.258Z,23.80
2018-01-15T06:42:28.281Z,23.65
2018-01-15T06:44:55.878Z,22.15
2018-01-15T06:47:22.803Z,19.27
2018-01-15T06:49:49.772Z,22.23
2018-01-15T06:52:16.655Z,19.73
2018-01-15T06:54:43.484Z,24.30
2018-01-15T06:57:10.338Z,23.95
2018-01-15T06:59:38.397Z,18.83
2018-01-15T07:02:05.273Z,24.87
2018-01-15T07:04:32.133Z,24.23
2018-01-15T07:06:59.024Z,25.65
2018-01-15T07:09:25.865Z,24.50
2018-01-15T07:12:07.867Z,23.73
2018-01-15T07:14:34.707Z,24.73
2018-01-15T07:17:01.589Z,23.02
2018-01-15T07:19:28.423Z,22.90
2018-01-15T07:21:55.296Z,23.80
2018-01-15T07:24:22.180Z,27.37
2018-01-15T07:26:49.839Z,21.80
2018-01-15T07:29:16.783Z,21.05
2018-01-15T07:31:43.638Z,22.17
2018-01-15T07:34:11.258Z,21.48
2018-01-15T07:36:38.068Z,20.35
2018-01-15T07:39:05.025Z,23.48
2018-01-15T07:41:31.812Z,20.12
2018-01-15T08:02:39.244Z,24.42
2018-01-15T08:05:06.137Z,23.42
2018-01-15T08:07:33.050Z,21.65
2018-01-15T08:09:59.958Z,21.90
2018-01-15T08:12:26.811Z,19.48
2018-01-15T08:14:54.425Z,20.67
2018-01-15T08:17:21.258Z,20.30
2018-01-15T08:19:48.914Z,20.88
2018-01-15T08:22:16.685Z,19.65
2018-01-15T08:24:43.653Z,21.73
2018-01-15T08:27:11.528Z,19.65
2018-01-15T08:29:38.574Z,23.27
2018-01-15T08:32:05.625Z,17.08
2018-01-15T08:34:32.681Z,20.70
2018-01-15T08:36:59.784Z,21.75
2018-01-15T08:39:26.827Z,25.48
2018-01-15T08:41:53.820Z,21.08
2018-01-15T08:44:21.140Z,22.75
2018-01-15T08:46:48.136Z,20.80
2018-01-15T08:49:15.281Z,19.10
2018-01-15T08:51:42.287Z,20.62
2018-01-15T08:54:09.220Z,19.45
2018-01-15T08:56:36.159Z,19.50
2018-01-15T08:59:03.138Z,19.67
2018-01-15T09:01:30.038Z,18.75
2018-01-15T09:03:57.014Z,17.10
2018-01-15T09:06:24.103Z,18.75
2018-01-15T09:08:50.987Z,22.75
2018-01-15T09:11:17.985Z,18.58
2018-01-15T09:13:44.910Z,23.05
2018-01-15T09:16:11.922Z,21.05
2018-01-15T09:18:38.867Z,19.83
2018-01-15T09:21:05.840Z,23.02
2018-01-15T09:23:32.943Z,18.80
2018-01-15T09:25:59.746Z,22.80
2018-01-15T09:28:26.622Z,20.40
2018-01-15T09:30:53.583Z,20.88
2018-01-15T09:33:20.598Z,19.15
2018-01-15T09:35:48.234Z,21.40
2018-01-15T09:38:15.136Z,21.92
2018-01-15T09:40:42.012Z,15.88
2018-01-15T09:43:08.854Z,17.65
2018-01-15T09:45:36.513Z,22.58
2018-01-15T09:48:03.435Z,17.10
2018-01-15T09:50:30.405Z,20.00
2018-01-15T09:52:57.289Z,18.75
2018-01-15T09:55:24.156Z,17.15
2018-01-15T09:57:51.104Z,19.02
2018-01-15T10:00:18.008Z,17.08
2018-01-15T10:02:44.958Z,16.60
2018-01-15T10:05:12.700Z,16.20
2018-01-15T10:07:39.609Z,16.83
2018-01-15T10:10:06.566Z,15.57
2018-01-15T10:12:33.494Z,15.52
2018-01-15T10:15:00.363Z,21.95
2018-01-15T10:17:27.274Z,18.98
2018-01-15T10:19:55.018Z,16.08
2018-01-15T10:22:22.083Z,14.93
2018-01-15T10:24:49.129Z,16.58
2018-01-15T10:27:16.091Z,15.20
2018-01-15T10:29:42.987Z,16.02
2018-01-15T10:32:09.904Z,18.50
2018-01-15T10:34:36.917Z,18.40
2018-01-15T10:37:03.911Z,18.27
2018-01-15T10:39:30.926Z,17.65
2018-01-15T10:41:57.909Z,17.87
2018-01-15T10:44:24.802Z,20.23
2018-01-15T10:46:53.502Z,15.85
2018-01-15T10:49:22.318Z,20.17
2018-01-15T10:51:53.141Z,18.17
2018-01-15T10:54:19.996Z,20.15
2018-01-15T10:56:46.978Z,20.05
2018-01-15T10:59:13.863Z,16.52
2018-01-15T11:01:40.765Z,17.75
2018-01-15T11:04:07.650Z,16.75
2018-01-15T11:06:34.581Z,18.80
2018-01-15T11:09:01.416Z,14.70
2018-01-15T11:11:28.331Z,14.65
2018-01-15T11:13:55.318Z,15.70
2018-01-15T11:16:23.086Z,16.35
2018-01-15T11:18:50.717Z,15.20
2018-01-15T11:21:17.557Z,17.27
2018-01-15T11:23:45.195Z,14.43
2018-01-15T11:26:12.075Z,14.20
2018-01-15T11:28:39.813Z,14.90
2018-01-15T11:31:06.835Z,13.80
2018-01-15T11:33:34.496Z,12.73
2018-01-15T11:36:01.495Z,13.90
2018-01-15T11:38:28.497Z,11.90
2018-01-15T11:40:55.579Z,11.93
2018-01-15T11:43:22.607Z,13.43
2018-01-15T11:45:49.847Z,17.98
2018-01-15T11:48:17.612Z,13.80
2018-01-15T11:50:46.906Z,14.87
2018-01-15T11:53:21.781Z,14.70
2018-01-15T11:55:51.382Z,11.50
2018-01-15T11:58:18.329Z,14.82
2018-01-15T12:00:45.224Z,12.90
2018-01-15T12:03:12.077Z,14.52
2018-01-15T12:05:39.217Z,15.50
2018-01-15T12:08:06.388Z,12.37
2018-01-15T12:10:33.368Z,14.70
2018-01-15T12:13:00.258Z,13.00
2018-01-15T12:15:28.245Z,15.65
2018-01-15T12:17:57.422Z,15.93
2018-01-15T12:20:24.554Z,14.53
2018-01-15T12:22:55.446Z,18.67
2018-01-15T12:25:22.394Z,15.30
2018-01-15T12:27:50.964Z,22.67
2018-01-15T12:30:20.734Z,17.15
2018-01-15T12:32:55.291Z,15.52
2018-01-15T12:35:27.510Z,20.73
2018-01-15T12:37:55.978Z,17.55
2018-01-15T12:40:23.744Z,19.80
2018-01-15T12:42:50.778Z,18.85
2018-01-15T12:45:17.808Z,21.12
2018-01-15T12:47:45.618Z,17.90
2018-01-15T12:50:12.756Z,20.37
2018-01-15T12:52:40.006Z,15.70
2018-01-15T12:55:12.445Z,17.10
2018-01-15T12:57:40.460Z,17.10
2018-01-15T13:00:07.659Z,18.00
2018-01-15T13:02:35.549Z,18.45
2018-01-15T13:05:03.343Z,19.00
2018-01-15T13:07:48.674Z,18.30
2018-01-15T13:10:16.221Z,14.35
2018-01-15T13:12:43.645Z,18.30
2018-01-15T13:15:11.337Z,17.70
2018-01-15T13:17:39.567Z,17.20
2018-01-15T13:20:09.293Z,16.35
2018-01-15T13:22:36.516Z,14.52
2018-01-15T13:25:04.374Z,14.40
2018-01-15T13:27:32.812Z,17.45
2018-01-15T13:29:59.846Z,14.07
2018-01-15T13:32:26.833Z,14.30
2018-01-15T13:34:53.705Z,16.02
2018-01-15T13:37:20.898Z,15.10
2018-01-15T13:39:49.057Z,13.80
2018-01-15T13:42:17.856Z,15.43
2018-01-15T13:44:45.017Z,19.48
2018-01-15T13:47:12.958Z,17.75
2018-01-15T13:49:39.916Z,15.63
2018-01-15T13:52:07.762Z,21.15
2018-01-15T13:54:34.657Z,17.45
2018-01-15T13:57:01.476Z,17.40
2018-01-15T13:59:28.621Z,15.52
2018-01-15T14:01:55.742Z,19.85
2018-01-15T14:04:22.575Z,23.23
2018-01-15T14:06:49.402Z,17.55
2018-01-15T14:09:16.494Z,15.35
2018-01-15T14:11:44.052Z,16.40
2018-01-15T14:14:11.479Z,18.35
2018-01-15T14:16:39.014Z,17.70
2018-01-15T14:19:06.359Z,19.73
2018-01-15T14:21:33.308Z,20.08
2018-01-15T14:24:00.874Z,16.58
2018-01-15T14:26:28.327Z,13.90
2018-01-15T14:28:55.073Z,18.20
2018-01-15T14:31:22.005Z,14.55
2018-01-15T14:33:48.796Z,16.75
2018-01-15T14:36:15.582Z,13.77
2018-01-15T14:38:42.392Z,14.93
2018-01-15T14:41:09.154Z,13.32
2018-01-15T14:43:35.916Z,14.15
2018-01-15T14:46:02.722Z,12.23
2018-01-15T14:48:30.138Z,12.82
2018-01-15T14:50:56.924Z,12.52
2018-01-15T14:53:23.704Z,10.27
2018-01-15T14:55:50.482Z,11.32
2018-01-15T14:58:17.231Z,12.77
2018-01-15T15:00:46.589Z,11.43
2018-01-15T15:03:13.560Z,11.35
2018-01-15T15:05:40.405Z,14.00
2018-01-15T15:08:08.645Z,9.98
2018-01-15T15:10:35.410Z,10.63
2018-01-15T15:13:02.162Z,13.35
2018-01-15T15:15:29.579Z,11.75
2018-01-15T15:17:56.415Z,11.40
2018-01-15T15:20:23.494Z,11.68
2018-01-15T15:22:50.309Z,10.00
2018-01-15T15:25:17.097Z,11.30
2018-01-15T15:27:43.943Z,12.68
2018-01-15T15:30:11.339Z,10.73
2018-01-15T15:32:38.171Z,10.35
2018-01-15T15:35:05.292Z,11.38
2018-01-15T15:37:32.451Z,10.60
2018-01-15T15:39:59.262Z,10.50
2018-01-15T15:42:26.004Z,9.73
2018-01-15T15:44:53.252Z,8.90
2018-01-15T15:47:20.853Z,10.65
2018-01-15T15:49:47.649Z,11.52
2018-01-15T15:52:14.432Z,9.45
2018-01-15T15:54:41.216Z,10.40
2018-01-15T15:57:08.744Z,9.98
2018-01-15T15:59:35.576Z,9.85
2018-01-15T16:02:02.430Z,9.88
2018-01-15T16:04:29.228Z,7.07
2018-01-15T16:06:56.063Z,8.02
2018-01-15T16:09:23.879Z,7.72
2018-01-15T16:11:50.648Z,8.40
2018-01-15T16:14:17.545Z,9.45
2018-01-15T16:16:44.538Z,8.63
2018-01-15T16:19:11.911Z,8.10
2018-01-15T16:21:38.722Z,7.72
2018-01-15T16:24:05.617Z,8.77
2018-01-15T16:26:32.382Z,8.63
2018-01-15T16:28:59.632Z,7.32
2018-01-15T16:31:27.048Z,7.53
2018-01-15T16:33:54.035Z,6.78
2018-01-15T16:36:22.077Z,8.10
2018-01-15T16:38:48.933Z,8.57
2018-01-15T16:41:15.696Z,7.85
2018-01-15T16:43:44.246Z,8.43
2018-01-15T16:46:11.096Z,8.10
2018-01-15T16:48:37.883Z,8.05
2018-01-15T16:51:04.832Z,7.37
2018-01-15T16:53:31.728Z,8.73
2018-01-15T16:55:59.259Z,8.88
2018-01-15T16:58:26.076Z,7.15
2018-01-15T17:00:52.874Z,7.82
2018-01-15T17:03:19.931Z,7.45
2018-01-15T17:05:46.998Z,6.37
2018-01-15T17:08:14.285Z,7.97
2018-01-15T17:10:41.547Z,6.20
2018-01-15T17:13:08.633Z,7.15
2018-01-15T17:15:36.748Z,6.87
2018-01-15T17:18:04.243Z,6.47
2018-01-15T17:20:31.088Z,9.18
2018-01-15T17:22:58.659Z,8.43
2018-01-15T17:25:26.178Z,4.28
2018-01-15T17:27:52.952Z,6.47
2018-01-15T17:30:19.710Z,5.78
2018-01-15T17:32:46.845Z,5.10
2018-01-15T17:35:14.801Z,5.00
2018-01-15T17:37:41.602Z,5.18
2018-01-15T17:40:08.436Z,6.22
2018-01-15T17:42:36.259Z,4.30
2018-01-15T17:45:03.142Z,4.65
2018-01-15T17:47:29.913Z,4.07
2018-01-15T17:49:56.698Z,4.00
2018-01-15T17:52:25.085Z,3.33
2018-01-15T17:54:52.169Z,4.55
2018-01-15T17:57:19.683Z,3.97
2018-01-15T17:59:47.585Z,2.65
2018-01-15T18:02:16.060Z,6.25
2018-01-15T18:04:44.150Z,3.20
2018-01-15T18:07:12.324Z,3.28
2018-01-15T18:09:39.832Z,3.10
2018-01-15T18:12:07.439Z,1.98
2018-01-15T18:14:36.319Z,2.28
2018-01-15T18:17:04.436Z,2.40
2018-01-15T18:19:31.645Z,2.75
2018-01-15T18:21:58.466Z,4.87
2018-01-15T18:24:25.241Z,2.35
2018-01-15T18:26:52.820Z,3.35
2018-01-15T18:29:20.502Z,3.05
2018-01-15T18:31:51.003Z,2.75
2018-01-15T18:34:18.700Z,2.55
2018-01-15T18:36:46.596Z,2.30
2018-01-15T18:39:13.655Z,1.42
2018-01-15T18:41:42.365Z,1.25
2018-01-15T18:44:10.533Z,1.65
2018-01-15T18:46:39.456Z,1.50
2018-01-15T18:49:08.958Z,1.35
2018-01-15T18:51:37.663Z,1.40
2018-01-15T18:54:06.452Z,1.20
2018-01-15T18:56:35.342Z,1.92
2018-01-15T18:59:04.393Z,1.35
2018-01-15T19:01:33.005Z,1.25
2018-01-15T19:04:01.920Z,1.52
2018-01-15T19:06:30.543Z,1.08
2018-01-15T19:08:59.125Z,1.40
2018-01-15T19:11:27.559Z,1.40
2018-01-15T19:13:56.222Z,1.20
2018-01-15T19:16:25.079Z,1.17
2018-01-15T19:18:52.563Z,1.15
2018-01-15T19:21:19.925Z,1.45
2018-01-15T19:23:47.331Z,1.27
2018-01-15T19:26:15.489Z,1.12
2018-01-15T19:28:44.276Z,1.30
2018-01-15T19:31:12.870Z,0.77
2018-01-15T19:33:41.645Z,1.35
2018-01-15T19:36:15.271Z,0.85
2018-01-15T19:40:10.724Z,1.17
2018-01-15T19:58:55.835Z,0.70
2018-01-15T20:01:30.553Z,0.80
2018-01-15T20:17:28.846Z,0.60
2018-01-15T20:19:58.505Z,0.88
2018-01-15T20:22:27.417Z,0.90
2018-01-15T20:24:56.270Z,0.70
2018-01-15T20:27:25.209Z,0.62
2018-01-15T20:29:54.120Z,0.70
2018-01-15T20:32:23.142Z,0.43
2018-01-15T20:34:52.102Z,1.17
2018-01-15T20:37:21.542Z,0.68
2018-01-15T20:39:51.613Z,0.95
2018-01-15T20:42:20.520Z,0.60
2018-01-15T20:44:50.114Z,0.70
2018-01-15T20:47:19.725Z,0.52
2018-01-15T20:49:49.333Z,0.60
2018-01-15T20:52:18.650Z,0.62
2018-01-15T20:54:47.411Z,1.40
2018-01-15T20:57:15.339Z,3.22
2018-01-15T20:59:42.804Z,1.33
2018-01-15T21:02:11.642Z,0.60
2018-01-15T21:04:40.092Z,1.00
2018-01-15T21:07:08.614Z,0.47
2018-01-15T21:09:37.561Z,0.85
2018-01-15T21:12:06.197Z,0.73
2018-01-15T21:14:36.271Z,1.05
2018-01-15T21:17:05.285Z,2.45
2018-01-15T21:19:33.462Z,0.45
2018-01-15T21:22:02.277Z,0.90
2018-01-15T21:24:30.675Z,1.37
2018-01-15T21:26:59.242Z,0.70
2018-01-15T21:29:35.944Z,0.80
2018-01-15T21:32:07.750Z,0.85
2018-01-15T21:34:35.544Z,3.60
2018-01-15T21:37:04.283Z,0.70
2018-01-15T21:39:31.746Z,0.60
2018-01-15T21:42:12.072Z,1.37
2018-01-15T21:44:40.350Z,0.93
2018-01-15T21:47:07.777Z,1.00
2018-01-15T21:49:34.930Z,0.90
2018-01-15T21:52:03.070Z,1.50
2018-01-15T21:54:30.190Z,1.10
2018-01-15T21:56:57.380Z,1.25
2018-01-15T21:59:24.751Z,1.37
2018-01-15T22:01:51.766Z,1.33
2018-01-15T22:04:18.914Z,1.70
2018-01-15T22:06:46.065Z,1.25
2018-01-15T22:09:13.927Z,1.25
2018-01-15T22:11:42.153Z,2.25
2018-01-15T22:14:09.748Z,1.12
2018-01-15T22:16:38.082Z,1.20
2018-01-15T22:19:05.158Z,1.15
2018-01-15T22:21:32.047Z,1.55
2018-01-15T22:24:00.947Z,1.25
2018-01-15T22:26:27.974Z,1.23
2018-01-15T22:28:54.889Z,1.70
2018-01-15T22:31:21.882Z,1.80
2018-01-15T22:33:56.682Z,3.22
2018-01-15T22:36:31.305Z,2.22
2018-01-15T22:41:44.122Z,1.92
2018-01-15T22:44:16.837Z,2.40
2018-01-15T22:46:45.150Z,2.70
2018-01-15T22:49:17.553Z,3.87
2018-01-15T22:51:45.108Z,3.10
2018-01-15T22:54:13.476Z,2.85
2018-01-15T22:56:41.112Z,2.90
2018-01-15T22:59:09.286Z,3.60
2018-01-15T23:01:37.612Z,3.90
2018-01-15T23:22:18.890Z,3.15
2018-01-15T23:24:45.854Z,4.03
2018-01-15T23:27:12.775Z,4.03
2018-01-15T23:29:39.684Z,3.53
2018-01-15T23:32:06.640Z,2.92
2018-01-15T23:34:33.608Z,3.37
2018-01-15T23:37:00.585Z,3.70
2018-01-15T23:39:27.465Z,3.50
2018-01-15T23:41:54.298Z,4.50
2018-01-15T23:44:21.197Z,3.10
2018-01-15T23:46:48.050Z,2.90
2018-01-15T23:49:16.050Z,2.85
2018-01-15T23:51:44.209Z,3.75
2018-01-15T23:54:23.520Z,2.50
2018-01-15T23:56:50.364Z,3.63
2018-01-15T23:59:17.945Z,2.70
